Marwood, Pennsylvania
Current Conditions -  °F | °C
As of 4:15 AM on Friday 24 Oct 2014 (Local Time) from KBTP Reporting Station
Clear Clear  
Wind Chill: 35°   Ceiling: Unl
Heat Index: 39°   Visibility: 3mi
Dew Point: 37°   Wind: 6mph
Humidity: 93%   Direction: 280°W
Pressure: 30.08"   Gusts: NA
Location:  40.7876°N, 79.7479°W
Report Text: KBTP 240815Z AUTO 28005KT 3SM CLR 04/03 A3008 RMK AO1
Loading
Personal Weather Stations






























Interactive Weather Map
Tropical Storm Tracking
New forecast layout! Learn more

10-Day Weather Forecast

Advertisements
Track Severe Weather on mobile